createdAt,value
2024-02-24T00:00:52.302Z,3.80
2024-02-24T00:03:21.404Z,3.80
2024-02-24T00:05:49.739Z,3.90
2024-02-24T00:08:16.590Z,3.90
2024-02-24T00:10:43.428Z,3.90
2024-02-24T00:13:10.318Z,4.00
2024-02-24T00:15:37.187Z,4.00
2024-02-24T00:18:05.378Z,4.00
2024-02-24T00:20:32.380Z,4.00
2024-02-24T00:22:59.381Z,4.00
2024-02-24T00:25:26.175Z,4.00
2024-02-24T00:27:52.963Z,4.00
2024-02-24T00:30:19.669Z,4.00
2024-02-24T00:32:46.505Z,4.10
2024-02-24T00:35:13.476Z,4.10
2024-02-24T00:37:40.474Z,4.20
2024-02-24T00:40:08.363Z,4.20
2024-02-24T00:42:35.108Z,4.30
2024-02-24T00:45:03.311Z,4.30
2024-02-24T00:47:30.228Z,4.30
2024-02-24T00:49:56.990Z,4.30
2024-02-24T00:52:23.891Z,4.30
2024-02-24T00:54:50.636Z,4.30
2024-02-24T00:57:17.370Z,4.30
2024-02-24T00:59:44.161Z,4.20
2024-02-24T01:02:11.065Z,4.20
2024-02-24T01:04:38.053Z,4.20
2024-02-24T01:07:05.030Z,4.20
2024-02-24T01:09:31.838Z,4.10
2024-02-24T01:11:58.913Z,4.10
2024-02-24T01:14:25.705Z,4.00
2024-02-24T01:16:52.486Z,4.00
2024-02-24T01:19:19.347Z,4.00
2024-02-24T01:21:46.354Z,4.00
2024-02-24T01:24:15.215Z,3.90
2024-02-24T01:26:42.167Z,3.90
2024-02-24T01:29:09.044Z,3.90
2024-02-24T01:31:35.890Z,3.90
2024-02-24T01:34:02.827Z,3.90
2024-02-24T01:36:29.902Z,3.90
2024-02-24T01:38:56.757Z,4.00
2024-02-24T01:41:23.589Z,4.00
2024-02-24T01:43:50.404Z,4.10
2024-02-24T01:46:17.201Z,4.10
2024-02-24T01:48:44.276Z,4.10
2024-02-24T01:51:11.824Z,4.10
2024-02-24T01:53:39.083Z,4.10
2024-02-24T01:56:09.087Z,4.00
2024-02-24T01:58:40.070Z,4.00
2024-02-24T02:01:09.562Z,4.00
2024-02-24T02:03:37.315Z,4.00
2024-02-24T02:06:04.829Z,4.10
2024-02-24T02:08:31.720Z,4.00
2024-02-24T02:10:58.626Z,3.90
2024-02-24T02:13:25.502Z,3.90
2024-02-24T02:15:58.337Z,3.80
2024-02-24T02:18:25.457Z,3.80
2024-02-24T02:20:53.263Z,3.80
2024-02-24T02:23:20.890Z,3.80
2024-02-24T02:25:47.944Z,3.80
2024-02-24T02:28:14.747Z,3.80
2024-02-24T02:30:41.612Z,3.70
2024-02-24T02:33:10.248Z,3.70
2024-02-24T02:35:37.644Z,3.70
2024-02-24T02:38:08.924Z,3.70
2024-02-24T02:40:36.045Z,3.70
2024-02-24T02:43:02.906Z,3.70
2024-02-24T02:45:29.624Z,3.70
2024-02-24T02:47:56.442Z,3.70
2024-02-24T02:50:23.329Z,3.60
2024-02-24T02:52:50.429Z,3.60
2024-02-24T02:55:18.830Z,3.60
2024-02-24T02:57:45.677Z,3.60
2024-02-24T03:00:13.044Z,3.60
2024-02-24T03:02:39.890Z,3.60
2024-02-24T03:05:07.275Z,3.70
2024-02-24T03:07:34.132Z,3.60
2024-02-24T03:10:00.901Z,3.60
2024-02-24T03:12:28.155Z,3.60
2024-02-24T03:14:55.016Z,3.60
2024-02-24T03:17:21.953Z,3.60
2024-02-24T03:19:48.724Z,3.50
2024-02-24T03:22:15.477Z,3.60
2024-02-24T03:24:43.222Z,3.60
2024-02-24T03:27:13.985Z,3.50
2024-02-24T03:29:41.207Z,3.50
2024-02-24T03:32:08.238Z,3.50
2024-02-24T03:34:35.166Z,3.50
2024-02-24T03:37:02.665Z,3.50
2024-02-24T03:39:29.414Z,3.40
2024-02-24T03:41:56.229Z,3.50
2024-02-24T03:44:22.945Z,3.50
2024-02-24T03:46:49.751Z,3.40
2024-02-24T03:49:16.699Z,3.40
2024-02-24T03:51:43.428Z,3.40
2024-02-24T03:54:11.691Z,3.40
2024-02-24T03:56:38.614Z,3.40
2024-02-24T03:59:05.717Z,3.40
2024-02-24T04:01:32.743Z,3.40
2024-02-24T04:03:59.664Z,3.50
2024-02-24T04:06:26.557Z,3.50
2024-02-24T04:08:53.437Z,3.50
2024-02-24T04:11:20.284Z,3.50
2024-02-24T04:13:47.036Z,3.50
2024-02-24T04:16:13.833Z,3.40
2024-02-24T04:18:40.678Z,3.50
2024-02-24T04:21:07.538Z,3.40
2024-02-24T04:23:34.346Z,3.40
2024-02-24T04:26:02.365Z,3.30
2024-02-24T04:28:29.138Z,3.30
2024-02-24T04:30:55.933Z,3.30
2024-02-24T04:33:22.797Z,3.40
2024-02-24T04:35:49.763Z,3.30
2024-02-24T04:38:16.584Z,3.30
2024-02-24T04:40:43.464Z,3.30
2024-02-24T04:43:10.434Z,3.30
2024-02-24T04:45:37.827Z,3.30
2024-02-24T04:48:04.915Z,3.30
2024-02-24T04:50:31.920Z,3.30
2024-02-24T04:52:58.779Z,3.30
2024-02-24T04:55:25.651Z,3.30
2024-02-24T04:57:52.550Z,3.30
2024-02-24T05:00:19.542Z,3.30
2024-02-24T05:02:46.628Z,3.30
2024-02-24T05:05:14.107Z,3.20
2024-02-24T05:07:41.086Z,3.20
2024-02-24T05:10:08.599Z,3.10
2024-02-24T05:12:36.915Z,3.10
2024-02-24T05:15:03.928Z,3.00
2024-02-24T05:17:30.749Z,3.00
2024-02-24T05:19:57.513Z,3.00
2024-02-24T05:22:24.606Z,3.10
2024-02-24T05:24:51.343Z,3.10
2024-02-24T05:27:20.879Z,3.10
2024-02-24T05:29:48.337Z,3.20
2024-02-24T05:32:17.844Z,3.20
2024-02-24T05:34:45.067Z,3.20
2024-02-24T05:37:12.064Z,3.20
2024-02-24T05:39:39.297Z,3.20
2024-02-24T05:42:07.251Z,3.20
2024-02-24T05:44:34.406Z,3.20
2024-02-24T05:47:01.257Z,3.20
2024-02-24T05:49:28.061Z,3.20
2024-02-24T05:51:54.866Z,3.20
2024-02-24T05:54:22.421Z,3.20
2024-02-24T05:56:49.269Z,3.20
2024-02-24T05:59:16.350Z,3.20
2024-02-24T06:01:43.799Z,3.20
2024-02-24T06:04:10.604Z,3.20
2024-02-24T06:06:37.362Z,3.20
2024-02-24T06:09:04.135Z,3.20
2024-02-24T06:11:31.001Z,3.20
2024-02-24T06:13:57.801Z,3.20
2024-02-24T06:16:24.537Z,3.30
2024-02-24T06:18:51.376Z,3.30
2024-02-24T06:21:18.177Z,3.30
2024-02-24T06:23:44.963Z,3.40
2024-02-24T06:26:11.767Z,3.40
2024-02-24T06:28:39.815Z,3.40
2024-02-24T06:31:06.746Z,3.40
2024-02-24T06:33:33.635Z,3.50
2024-02-24T06:36:00.614Z,3.50
2024-02-24T06:38:28.345Z,3.60
2024-02-24T06:40:55.253Z,3.60
2024-02-24T06:43:22.287Z,3.70
2024-02-24T06:45:49.040Z,3.70
2024-02-24T06:48:16.825Z,3.70
2024-02-24T06:50:43.699Z,3.70
2024-02-24T06:53:10.540Z,3.80
2024-02-24T06:55:37.297Z,3.80
2024-02-24T06:58:04.096Z,3.90
2024-02-24T07:00:30.939Z,4.00
2024-02-24T07:02:57.855Z,4.00
2024-02-24T07:05:26.699Z,4.10
2024-02-24T07:07:53.651Z,4.20
2024-02-24T07:10:20.403Z,4.20
2024-02-24T07:12:47.962Z,4.30
2024-02-24T07:15:14.698Z,4.30
2024-02-24T07:17:42.421Z,4.40
2024-02-24T07:20:09.774Z,4.40
2024-02-24T07:22:36.587Z,4.50
2024-02-24T07:25:03.470Z,4.50
2024-02-24T07:27:30.221Z,4.50
2024-02-24T07:29:57.176Z,4.50
2024-02-24T07:32:24.280Z,4.50
2024-02-24T07:34:51.359Z,4.60
2024-02-24T07:37:18.437Z,4.60
2024-02-24T07:39:45.258Z,4.70
2024-02-24T07:42:12.193Z,4.70
2024-02-24T07:44:40.093Z,4.70
2024-02-24T07:47:09.071Z,4.70
2024-02-24T07:49:36.735Z,4.70
2024-02-24T07:52:05.145Z,4.70
2024-02-24T07:54:31.897Z,4.80
2024-02-24T07:56:58.692Z,4.90
2024-02-24T07:59:25.570Z,5.00
2024-02-24T08:01:52.363Z,5.00
2024-02-24T08:04:20.089Z,5.00
2024-02-24T08:06:46.913Z,5.00
2024-02-24T08:09:13.671Z,5.00
2024-02-24T08:11:43.451Z,4.90
2024-02-24T08:14:10.781Z,4.90
2024-02-24T08:16:37.631Z,4.90
2024-02-24T08:19:06.131Z,4.80
2024-02-24T08:21:37.753Z,4.80
2024-02-24T08:24:10.678Z,4.80
2024-02-24T08:26:41.304Z,4.80
2024-02-24T08:29:11.204Z,4.80
2024-02-24T08:31:39.909Z,4.90
2024-02-24T08:34:06.996Z,4.90
2024-02-24T08:36:34.162Z,5.00
2024-02-24T08:39:01.486Z,5.10
2024-02-24T08:41:32.804Z,5.30
2024-02-24T08:44:02.501Z,5.50
2024-02-24T08:46:30.314Z,5.70
2024-02-24T08:48:58.044Z,5.80
2024-02-24T08:51:26.917Z,5.80
2024-02-24T08:53:54.014Z,5.80
2024-02-24T08:56:21.864Z,5.90
2024-02-24T08:58:49.444Z,6.00
2024-02-24T09:01:17.007Z,6.00
2024-02-24T09:03:44.124Z,5.90
2024-02-24T09:06:11.330Z,5.80
2024-02-24T09:08:38.909Z,5.90
2024-02-24T09:11:05.986Z,5.90
2024-02-24T09:13:32.961Z,5.90
2024-02-24T09:16:00.076Z,6.00
2024-02-24T09:18:29.137Z,6.00
2024-02-24T09:20:56.127Z,6.10
2024-02-24T09:23:23.085Z,6.10
2024-02-24T09:25:49.937Z,6.20
2024-02-24T09:28:16.646Z,6.10
2024-02-24T09:30:43.414Z,6.20
2024-02-24T09:33:10.320Z,6.20
2024-02-24T09:35:37.290Z,6.30
2024-02-24T09:38:04.166Z,6.30
2024-02-24T09:40:30.969Z,6.40
2024-02-24T09:43:09.192Z,6.30
2024-02-24T09:45:42.585Z,6.30
2024-02-24T09:48:11.093Z,6.20
2024-02-24T09:50:38.083Z,6.10
2024-02-24T09:53:04.944Z,6.10
2024-02-24T09:55:31.696Z,6.20
2024-02-24T09:57:58.737Z,6.30
2024-02-24T10:00:25.556Z,6.30
2024-02-24T10:02:53.397Z,6.30
2024-02-24T10:05:20.527Z,6.30
2024-02-24T10:07:47.784Z,6.40
2024-02-24T10:10:17.371Z,6.40
2024-02-24T10:13:00.575Z,6.50
2024-02-24T10:15:27.982Z,6.50
2024-02-24T10:17:56.329Z,6.50
2024-02-24T10:20:23.363Z,6.60
2024-02-24T10:22:50.463Z,6.70
2024-02-24T10:25:17.768Z,6.80
2024-02-24T10:27:44.976Z,6.80
2024-02-24T10:30:12.419Z,6.80
2024-02-24T10:32:40.762Z,6.90
2024-02-24T10:35:09.615Z,7.00
2024-02-24T10:37:49.546Z,6.80
2024-02-24T10:40:23.455Z,6.80
2024-02-24T10:42:51.131Z,6.90
2024-02-24T10:45:18.891Z,7.10
2024-02-24T10:47:46.237Z,7.20
2024-02-24T10:50:14.243Z,7.10
2024-02-24T10:52:41.648Z,7.10
2024-02-24T10:55:09.226Z,7.20
2024-02-24T10:57:38.569Z,7.20
2024-02-24T11:00:29.825Z,7.30
2024-02-24T11:03:02.483Z,7.20
2024-02-24T11:05:29.632Z,7.10
2024-02-24T11:07:56.666Z,7.00
2024-02-24T11:10:33.100Z,6.70
2024-02-24T11:13:02.543Z,6.70
2024-02-24T11:15:29.363Z,6.60
2024-02-24T11:18:00.110Z,6.50
2024-02-24T11:20:39.947Z,6.50
2024-02-24T11:23:27.533Z,6.60
2024-02-24T11:26:21.939Z,6.60
2024-02-24T11:29:00.340Z,6.70
2024-02-24T11:31:36.327Z,6.80
2024-02-24T11:34:09.121Z,6.90
2024-02-24T11:36:39.289Z,7.00
2024-02-24T11:39:13.020Z,7.10
2024-02-24T11:41:41.693Z,7.30
2024-02-24T11:44:09.185Z,7.60
2024-02-24T11:46:36.921Z,7.50
2024-02-24T11:49:04.555Z,7.50
2024-02-24T11:51:31.559Z,7.70
2024-02-24T11:53:58.623Z,7.90
2024-02-24T11:56:26.722Z,8.00
2024-02-24T11:58:56.171Z,8.30
2024-02-24T12:01:23.894Z,8.30
2024-02-24T12:03:54.835Z,8.60
2024-02-24T12:06:22.661Z,8.30
2024-02-24T12:08:49.705Z,8.20
2024-02-24T12:11:16.638Z,8.10
2024-02-24T12:13:44.919Z,8.00
2024-02-24T12:16:11.690Z,8.00
2024-02-24T12:18:42.580Z,7.80
2024-02-24T12:21:12.017Z,7.70
2024-02-24T12:23:40.383Z,7.70
2024-02-24T12:26:14.794Z,7.80
2024-02-24T12:28:43.063Z,8.00
2024-02-24T12:31:11.628Z,8.20
2024-02-24T12:33:40.168Z,8.30
2024-02-24T12:36:08.418Z,8.30
2024-02-24T12:38:39.218Z,8.30
2024-02-24T12:41:13.656Z,8.40
2024-02-24T12:43:41.666Z,8.60
2024-02-24T12:46:09.624Z,8.70
2024-02-24T12:48:40.863Z,7.90
2024-02-24T12:51:09.562Z,7.30
2024-02-24T12:53:36.558Z,7.20
2024-02-24T12:56:03.970Z,7.10
2024-02-24T12:58:30.775Z,6.90
2024-02-24T13:00:58.134Z,7.10
2024-02-24T13:03:25.365Z,7.60
2024-02-24T13:05:52.252Z,7.60
2024-02-24T13:08:19.123Z,7.40
2024-02-24T13:10:46.593Z,7.10
2024-02-24T13:13:13.605Z,6.90
2024-02-24T13:15:40.389Z,6.40
2024-02-24T13:18:07.819Z,5.80
2024-02-24T13:20:35.178Z,5.80
2024-02-24T13:23:02.563Z,5.70
2024-02-24T13:25:29.498Z,5.90
2024-02-24T13:27:56.343Z,5.90
2024-02-24T13:30:24.190Z,6.00
2024-02-24T13:32:51.832Z,6.20
2024-02-24T13:35:19.007Z,6.40
2024-02-24T13:37:45.845Z,6.60
2024-02-24T13:40:12.717Z,6.70
2024-02-24T13:42:39.718Z,7.00
2024-02-24T13:45:08.136Z,7.30
2024-02-24T13:47:36.196Z,7.50
2024-02-24T13:50:03.932Z,7.80
2024-02-24T13:52:30.799Z,8.00
2024-02-24T13:54:57.902Z,7.80
2024-02-24T13:57:24.721Z,7.60
2024-02-24T13:59:51.574Z,7.50
2024-02-24T14:02:18.863Z,7.40
2024-02-24T14:04:45.907Z,7.30
2024-02-24T14:07:14.754Z,7.30
2024-02-24T14:09:42.461Z,7.30
2024-02-24T14:12:09.922Z,7.30
2024-02-24T14:14:36.685Z,7.30
2024-02-24T14:17:04.325Z,7.30
2024-02-24T14:19:32.212Z,7.30
2024-02-24T14:21:59.036Z,7.20
2024-02-24T14:24:25.837Z,7.20
2024-02-24T14:26:54.023Z,7.20
2024-02-24T14:29:20.874Z,7.10
2024-02-24T14:31:47.827Z,7.00
2024-02-24T14:34:14.633Z,6.60
2024-02-24T14:36:41.408Z,6.60
2024-02-24T14:39:08.904Z,6.80
2024-02-24T14:41:35.771Z,7.00
2024-02-24T14:44:03.442Z,7.10
2024-02-24T14:46:30.442Z,7.10
2024-02-24T14:48:57.336Z,6.90
2024-02-24T14:51:24.368Z,6.80
2024-02-24T14:53:52.419Z,6.80
2024-02-24T14:56:19.863Z,6.80
2024-02-24T14:58:46.654Z,6.80
2024-02-24T15:01:15.554Z,6.80
2024-02-24T15:03:45.327Z,6.80
2024-02-24T15:06:14.581Z,6.70
2024-02-24T15:08:41.429Z,6.70
2024-02-24T15:11:08.253Z,6.80
2024-02-24T15:13:37.540Z,6.70
2024-02-24T15:16:05.075Z,6.80
2024-02-24T15:18:32.091Z,6.90
2024-02-24T15:20:59.299Z,6.90
2024-02-24T15:23:26.172Z,6.90
2024-02-24T15:25:53.061Z,7.10
2024-02-24T15:28:19.841Z,7.10
2024-02-24T15:30:46.768Z,7.10
2024-02-24T15:33:14.192Z,7.10
2024-02-24T15:35:41.144Z,7.20
2024-02-24T15:38:08.158Z,7.40
2024-02-24T15:40:36.937Z,7.50
2024-02-24T15:43:05.591Z,7.60
2024-02-24T15:45:32.367Z,7.70
2024-02-24T15:47:59.328Z,7.70
2024-02-24T15:50:26.955Z,7.60
2024-02-24T15:52:53.769Z,7.50
2024-02-24T15:55:20.617Z,7.40
2024-02-24T15:57:48.882Z,7.50
2024-02-24T16:00:16.086Z,7.40
2024-02-24T16:02:44.010Z,7.40
2024-02-24T16:05:10.994Z,7.40
2024-02-24T16:07:38.000Z,7.30
2024-02-24T16:10:05.272Z,7.30
2024-02-24T16:12:32.022Z,7.20
2024-02-24T16:14:58.940Z,7.20
2024-02-24T16:17:25.781Z,7.20
2024-02-24T16:19:52.889Z,7.10
2024-02-24T16:22:19.852Z,7.10
2024-02-24T16:24:46.605Z,7.10
2024-02-24T16:27:13.385Z,7.10
2024-02-24T16:29:40.261Z,7.10
2024-02-24T16:32:09.672Z,7.00
2024-02-24T16:34:37.239Z,6.90
2024-02-24T16:37:04.370Z,6.80
2024-02-24T16:39:33.205Z,6.70
2024-02-24T16:42:00.310Z,6.70
2024-02-24T16:44:28.212Z,6.60
2024-02-24T16:46:55.888Z,6.50
2024-02-24T16:49:23.390Z,6.50
2024-02-24T16:51:53.073Z,6.50
2024-02-24T16:54:20.084Z,6.40
2024-02-24T16:56:47.098Z,6.40
2024-02-24T16:59:14.054Z,6.30
2024-02-24T17:01:41.068Z,6.30
2024-02-24T17:04:07.820Z,6.30
2024-02-24T17:06:34.711Z,6.20
2024-02-24T17:09:03.860Z,6.20
2024-02-24T17:11:31.084Z,6.10
2024-02-24T17:13:58.105Z,6.00
2024-02-24T17:16:24.996Z,6.00
2024-02-24T17:18:54.412Z,5.90
2024-02-24T17:21:21.470Z,5.90
2024-02-24T17:23:48.683Z,5.80
2024-02-24T17:26:17.046Z,5.80
2024-02-24T17:28:44.362Z,5.70
2024-02-24T17:31:14.720Z,5.60
2024-02-24T17:33:45.353Z,5.60
2024-02-24T17:36:12.645Z,5.50
2024-02-24T17:38:39.962Z,5.40
2024-02-24T17:41:06.888Z,5.40
2024-02-24T17:43:33.903Z,5.40
2024-02-24T17:46:00.890Z,5.30
2024-02-24T17:48:28.671Z,5.30
2024-02-24T17:50:55.734Z,5.20
2024-02-24T17:53:23.635Z,5.20
2024-02-24T17:55:51.350Z,5.10
2024-02-24T17:58:19.089Z,5.10
2024-02-24T18:00:46.987Z,5.10
2024-02-24T18:03:15.271Z,5.10
2024-02-24T18:05:42.634Z,5.10
2024-02-24T18:08:09.579Z,5.20
2024-02-24T18:10:36.302Z,5.20
2024-02-24T18:13:03.646Z,5.10
2024-02-24T18:15:30.570Z,5.10
2024-02-24T18:17:57.446Z,5.10
2024-02-24T18:20:24.311Z,5.20
2024-02-24T18:22:51.073Z,5.20
2024-02-24T18:25:17.916Z,5.10
2024-02-24T18:27:44.635Z,5.20
2024-02-24T18:30:11.686Z,5.20
2024-02-24T18:32:38.742Z,5.20
2024-02-24T18:35:05.976Z,5.20
2024-02-24T18:37:32.699Z,5.20
2024-02-24T18:40:03.046Z,5.20
2024-02-24T18:42:29.834Z,5.20
2024-02-24T18:44:56.694Z,5.10
2024-02-24T18:47:23.947Z,5.10
2024-02-24T18:49:52.481Z,5.00
2024-02-24T18:52:19.208Z,5.00
2024-02-24T18:54:46.834Z,5.00
2024-02-24T18:57:13.617Z,5.00
2024-02-24T18:59:43.783Z,4.90
2024-02-24T19:02:13.386Z,4.80
2024-02-24T19:04:40.476Z,4.80
2024-02-24T19:07:11.685Z,4.80
2024-02-24T19:09:42.253Z,4.80
2024-02-24T19:12:09.701Z,4.70
2024-02-24T19:14:45.470Z,4.80
2024-02-24T19:17:19.705Z,4.70
2024-02-24T19:19:49.475Z,4.70
2024-02-24T19:22:16.296Z,4.70
2024-02-24T19:24:43.091Z,4.70
2024-02-24T19:27:09.840Z,4.60
2024-02-24T19:29:37.574Z,4.50
2024-02-24T19:32:04.710Z,4.50
2024-02-24T19:34:31.550Z,4.40
2024-02-24T19:36:58.376Z,4.40
2024-02-24T19:39:25.184Z,4.30
2024-02-24T19:41:51.974Z,4.30
2024-02-24T19:44:18.804Z,4.30
2024-02-24T19:46:45.597Z,4.20
2024-02-24T19:49:12.900Z,4.10
2024-02-24T19:51:39.798Z,4.10
2024-02-24T19:54:06.619Z,4.00
2024-02-24T19:56:33.476Z,3.90
2024-02-24T19:59:00.494Z,3.90
2024-02-24T20:01:27.269Z,3.80
2024-02-24T20:03:54.123Z,3.80
2024-02-24T20:06:21.000Z,3.70
2024-02-24T20:08:47.901Z,3.70
2024-02-24T20:11:14.924Z,3.70
2024-02-24T20:13:41.846Z,3.60
2024-02-24T20:16:08.887Z,3.50
2024-02-24T20:18:35.781Z,3.50
2024-02-24T20:21:03.955Z,3.50
2024-02-24T20:23:30.740Z,3.40
2024-02-24T20:25:57.491Z,3.40
2024-02-24T20:28:24.247Z,3.40
2024-02-24T20:30:51.060Z,3.40
2024-02-24T20:33:18.327Z,3.30
2024-02-24T20:35:45.278Z,3.30
2024-02-24T20:38:12.387Z,3.30
2024-02-24T20:40:39.962Z,3.30
2024-02-24T20:43:06.801Z,3.30
2024-02-24T20:45:33.526Z,3.30
2024-02-24T20:48:00.403Z,3.30
2024-02-24T20:50:29.228Z,3.30
2024-02-24T20:52:56.027Z,3.30
2024-02-24T20:55:22.907Z,3.30
2024-02-24T20:57:49.678Z,3.20
2024-02-24T21:00:16.899Z,3.20
2024-02-24T21:02:43.736Z,3.20
2024-02-24T21:05:10.630Z,3.20
2024-02-24T21:07:37.350Z,3.10
2024-02-24T21:10:04.420Z,3.10
2024-02-24T21:12:31.090Z,3.10
2024-02-24T21:14:57.885Z,3.10
2024-02-24T21:17:24.750Z,3.00
2024-02-24T21:19:52.811Z,3.00
2024-02-24T21:22:19.646Z,2.90
2024-02-24T21:24:46.400Z,2.80
2024-02-24T21:27:13.294Z,2.70
2024-02-24T21:29:42.432Z,2.70
2024-02-24T21:32:09.177Z,2.60
2024-02-24T21:34:38.046Z,2.50
2024-02-24T21:37:05.060Z,2.50
2024-02-24T21:39:31.874Z,2.40
2024-02-24T21:41:58.999Z,2.30
2024-02-24T21:44:25.916Z,2.20
2024-02-24T21:46:52.731Z,2.10
2024-02-24T21:49:19.761Z,2.20
2024-02-24T21:51:46.553Z,2.20
2024-02-24T21:54:15.571Z,2.20
2024-02-24T21:56:47.452Z,2.20
2024-02-24T21:59:14.212Z,2.10
2024-02-24T22:01:40.914Z,2.00
2024-02-24T22:04:07.835Z,2.00
2024-02-24T22:06:35.428Z,2.00
2024-02-24T22:09:04.141Z,1.90
2024-02-24T22:11:34.827Z,1.70
2024-02-24T22:14:03.561Z,1.60
2024-02-24T22:16:30.771Z,1.60
2024-02-24T22:18:57.838Z,1.60
2024-02-24T22:21:26.617Z,1.60
2024-02-24T22:23:54.930Z,1.60
2024-02-24T22:26:22.329Z,1.60
2024-02-24T22:28:49.074Z,1.50
2024-02-24T22:31:15.901Z,1.60
2024-02-24T22:33:42.824Z,1.50
2024-02-24T22:36:10.612Z,1.60
2024-02-24T22:38:37.401Z,1.50
2024-02-24T22:41:08.014Z,1.60
2024-02-24T22:43:35.532Z,1.50
2024-02-24T22:46:06.496Z,1.50
2024-02-24T22:48:33.413Z,1.60
2024-02-24T22:51:00.383Z,1.70
2024-02-24T22:53:28.117Z,1.70
2024-02-24T22:55:54.879Z,1.70
2024-02-24T22:58:21.583Z,1.70
2024-02-24T23:00:48.637Z,1.90
2024-02-24T23:03:15.680Z,1.90
2024-02-24T23:05:42.636Z,2.00
2024-02-24T23:08:09.834Z,2.10
2024-02-24T23:10:36.599Z,2.20
2024-02-24T23:13:04.092Z,2.30
2024-02-24T23:15:31.654Z,2.50
2024-02-24T23:17:58.896Z,2.60
2024-02-24T23:20:27.854Z,2.60
2024-02-24T23:22:55.392Z,2.70
2024-02-24T23:25:22.398Z,2.70
2024-02-24T23:27:49.164Z,2.70
2024-02-24T23:30:16.209Z,2.80
2024-02-24T23:32:45.917Z,2.90
2024-02-24T23:35:13.602Z,2.90
2024-02-24T23:37:40.380Z,2.90
2024-02-24T23:40:10.749Z,2.90
2024-02-24T23:42:38.275Z,3.00
2024-02-24T23:45:06.020Z,3.00
2024-02-24T23:47:33.121Z,3.00
2024-02-24T23:50:00.138Z,3.10
2024-02-24T23:52:27.682Z,3.10
2024-02-24T23:54:56.137Z,3.10
2024-02-24T23:57:24.213Z,3.10
2024-02-24T23:59:51.138Z,3.10
